sensor_id;sensor_type;location;lat;lon;timestamp;temperature;humidity
68648;SHT31;55632;51.962;16.116;2023-03-01T00:00:30;-3.54;80.76
68648;SHT31;55632;51.962;16.116;2023-03-01T00:05:30;-3.56;80.80
68648;SHT31;55632;51.962;16.116;2023-03-01T00:10:34;-3.60;80.80
68648;SHT31;55632;51.962;16.116;2023-03-01T00:15:39;-3.61;80.79
68648;SHT31;55632;51.962;16.116;2023-03-01T00:20:54;-3.64;80.78
68648;SHT31;55632;51.962;16.116;2023-03-01T00:25:58;-3.68;80.76
68648;SHT31;55632;51.962;16.116;2023-03-01T00:31:12;-3.77;80.80
68648;SHT31;55632;51.962;16.116;2023-03-01T00:36:15;-3.81;80.82
68648;SHT31;55632;51.962;16.116;2023-03-01T00:41:18;-3.84;80.89
68648;SHT31;55632;51.962;16.116;2023-03-01T00:46:22;-3.86;80.96
68648;SHT31;55632;51.962;16.116;2023-03-01T00:51:26;-3.89;81.01
68648;SHT31;55632;51.962;16.116;2023-03-01T00:56:28;-3.89;81.12
68648;SHT31;55632;51.962;16.116;2023-03-01T01:01:30;-3.91;81.13
68648;SHT31;55632;51.962;16.116;2023-03-01T01:06:41;-3.95;81.15
68648;SHT31;55632;51.962;16.116;2023-03-01T01:11:44;-4.01;81.20
68648;SHT31;55632;51.962;16.116;2023-03-01T01:16:45;-4.05;81.25
68648;SHT31;55632;51.962;16.116;2023-03-01T01:21:46;-4.07;81.22
68648;SHT31;55632;51.962;16.116;2023-03-01T01:26:48;-4.13;81.20
68648;SHT31;55632;51.962;16.116;2023-03-01T01:31:52;-4.23;81.31
68648;SHT31;55632;51.962;16.116;2023-03-01T01:36:53;-4.27;81.45
68648;SHT31;55632;51.962;16.116;2023-03-01T01:41:54;-4.29;81.57
68648;SHT31;55632;51.962;16.116;2023-03-01T01:47:00;-4.30;81.59
68648;SHT31;55632;51.962;16.116;2023-03-01T01:52:18;-4.33;81.52
68648;SHT31;55632;51.962;16.116;2023-03-01T01:57:32;-4.40;81.45
68648;SHT31;55632;51.962;16.116;2023-03-01T02:02:34;-4.44;81.40
68648;SHT31;55632;51.962;16.116;2023-03-01T02:07:38;-4.51;81.51
68648;SHT31;55632;51.962;16.116;2023-03-01T02:12:42;-4.54;81.71
68648;SHT31;55632;51.962;16.116;2023-03-01T02:17:43;-4.55;81.74
68648;SHT31;55632;51.962;16.116;2023-03-01T02:22:46;-4.62;81.64
68648;SHT31;55632;51.962;16.116;2023-03-01T02:32:58;-4.71;82.14
68648;SHT31;55632;51.962;16.116;2023-03-01T02:38:06;-4.78;82.36
68648;SHT31;55632;51.962;16.116;2023-03-01T02:43:10;-4.79;82.54
68648;SHT31;55632;51.962;16.116;2023-03-01T02:48:14;-4.78;82.53
68648;SHT31;55632;51.962;16.116;2023-03-01T02:53:24;-4.78;82.56
68648;SHT31;55632;51.962;16.116;2023-03-01T02:58:28;-4.79;82.50
68648;SHT31;55632;51.962;16.116;2023-03-01T03:03:29;-4.82;82.44
68648;SHT31;55632;51.962;16.116;2023-03-01T03:08:30;-4.85;82.31
68648;SHT31;55632;51.962;16.116;2023-03-01T03:13:31;-4.88;82.22
68648;SHT31;55632;51.962;16.116;2023-03-01T03:18:32;-4.93;82.15
68648;SHT31;55632;51.962;16.116;2023-03-01T03:23:33;-4.96;82.15
68648;SHT31;55632;51.962;16.116;2023-03-01T03:28:34;-5.04;82.10
68648;SHT31;55632;51.962;16.116;2023-03-01T03:33:35;-5.09;82.11
68648;SHT31;55632;51.962;16.116;2023-03-01T03:38:40;-5.11;82.15
68648;SHT31;55632;51.962;16.116;2023-03-01T03:43:40;-5.14;82.23
68648;SHT31;55632;51.962;16.116;2023-03-01T03:48:44;-5.17;82.19
68648;SHT31;55632;51.962;16.116;2023-03-01T03:53:46;-5.18;82.14
68648;SHT31;55632;51.962;16.116;2023-03-01T03:58:46;-5.24;82.20
68648;SHT31;55632;51.962;16.116;2023-03-01T04:03:47;-5.30;82.18
68648;SHT31;55632;51.962;16.116;2023-03-01T04:08:48;-5.35;82.20
68648;SHT31;55632;51.962;16.116;2023-03-01T04:13:53;-5.42;82.29
68648;SHT31;55632;51.962;16.116;2023-03-01T04:18:54;-5.48;82.36
68648;SHT31;55632;51.962;16.116;2023-03-01T04:23:55;-5.52;82.40
68648;SHT31;55632;51.962;16.116;2023-03-01T04:28:59;-5.58;82.46
68648;SHT31;55632;51.962;16.116;2023-03-01T04:33:59;-5.59;82.56
68648;SHT31;55632;51.962;16.116;2023-03-01T04:39:00;-5.62;82.60
68648;SHT31;55632;51.962;16.116;2023-03-01T04:44:12;-5.63;82.69
68648;SHT31;55632;51.962;16.116;2023-03-01T04:49:13;-5.66;82.64
68648;SHT31;55632;51.962;16.116;2023-03-01T04:54:16;-5.69;82.89
68648;SHT31;55632;51.962;16.116;2023-03-01T04:59:19;-5.71;83.02
68648;SHT31;55632;51.962;16.116;2023-03-01T05:04:23;-5.71;83.13
68648;SHT31;55632;51.962;16.116;2023-03-01T05:09:30;-5.65;83.13
68648;SHT31;55632;51.962;16.116;2023-03-01T05:14:30;-5.68;83.06
68648;SHT31;55632;51.962;16.116;2023-03-01T05:19:31;-5.68;83.02
68648;SHT31;55632;51.962;16.116;2023-03-01T05:24:34;-5.71;83.08
68648;SHT31;55632;51.962;16.116;2023-03-01T05:29:35;-5.71;83.01
68648;SHT31;55632;51.962;16.116;2023-03-01T05:34:36;-5.75;83.18
68648;SHT31;55632;51.962;16.116;2023-03-01T05:39:39;-5.75;83.12
68648;SHT31;55632;51.962;16.116;2023-03-01T05:44:42;-5.78;83.11
68648;SHT31;55632;51.962;16.116;2023-03-01T05:49:43;-5.79;83.12
68648;SHT31;55632;51.962;16.116;2023-03-01T05:54:43;-5.78;83.07
68648;SHT31;55632;51.962;16.116;2023-03-01T05:59:45;-5.80;83.03
68648;SHT31;55632;51.962;16.116;2023-03-01T06:04:49;-5.78;83.29
68648;SHT31;55632;51.962;16.116;2023-03-01T06:09:50;-5.72;83.28
68648;SHT31;55632;51.962;16.116;2023-03-01T06:14:51;-5.72;83.24
68648;SHT31;55632;51.962;16.116;2023-03-01T06:19:51;-5.63;83.51
68648;SHT31;55632;51.962;16.116;2023-03-01T06:24:52;-5.51;83.55
68648;SHT31;55632;51.962;16.116;2023-03-01T06:29:53;-5.39;83.59
68648;SHT31;55632;51.962;16.116;2023-03-01T06:34:54;-5.31;83.56
68648;SHT31;55632;51.962;16.116;2023-03-01T06:39:54;-5.26;83.49
68648;SHT31;55632;51.962;16.116;2023-03-01T06:44:55;-5.13;83.72
68648;SHT31;55632;51.962;16.116;2023-03-01T06:49:56;-4.99;83.77
68648;SHT31;55632;51.962;16.116;2023-03-01T06:54:57;-4.81;83.86
68648;SHT31;55632;51.962;16.116;2023-03-01T06:59:57;-4.64;83.89
68648;SHT31;55632;51.962;16.116;2023-03-01T07:04:58;-4.46;83.88
68648;SHT31;55632;51.962;16.116;2023-03-01T07:09:59;-4.22;83.82
68648;SHT31;55632;51.962;16.116;2023-03-01T07:15:00;-4.07;83.76
68648;SHT31;55632;51.962;16.116;2023-03-01T07:20:01;-3.91;83.74
68648;SHT31;55632;51.962;16.116;2023-03-01T07:25:01;-3.73;83.74
68648;SHT31;55632;51.962;16.116;2023-03-01T07:30:02;-3.56;83.67
68648;SHT31;55632;51.962;16.116;2023-03-01T07:35:03;-3.40;83.73
68648;SHT31;55632;51.962;16.116;2023-03-01T07:40:05;-3.26;83.91
68648;SHT31;55632;51.962;16.116;2023-03-01T07:45:07;-3.06;83.80
68648;SHT31;55632;51.962;16.116;2023-03-01T07:50:08;-2.92;83.83
68648;SHT31;55632;51.962;16.116;2023-03-01T07:55:09;-2.80;83.99
68648;SHT31;55632;51.962;16.116;2023-03-01T08:00:11;-2.64;84.02
68648;SHT31;55632;51.962;16.116;2023-03-01T08:05:15;-2.52;84.12
68648;SHT31;55632;51.962;16.116;2023-03-01T08:10:16;-2.35;84.44
68648;SHT31;55632;51.962;16.116;2023-03-01T08:15:17;-2.15;84.41
68648;SHT31;55632;51.962;16.116;2023-03-01T08:20:19;-1.97;84.45
68648;SHT31;55632;51.962;16.116;2023-03-01T08:25:20;-1.80;84.50
68648;SHT31;55632;51.962;16.116;2023-03-01T08:30:20;-1.59;84.64
68648;SHT31;55632;51.962;16.116;2023-03-01T08:35:21;-1.44;84.71
68648;SHT31;55632;51.962;16.116;2023-03-01T08:40:22;-1.24;84.86
68648;SHT31;55632;51.962;16.116;2023-03-01T08:45:23;-1.00;84.81
68648;SHT31;55632;51.962;16.116;2023-03-01T08:50:24;-0.82;85.07
68648;SHT31;55632;51.962;16.116;2023-03-01T08:55:24;-0.58;85.13
68648;SHT31;55632;51.962;16.116;2023-03-01T09:00:25;-0.41;84.87
68648;SHT31;55632;51.962;16.116;2023-03-01T09:05:26;-0.27;84.89
68648;SHT31;55632;51.962;16.116;2023-03-01T09:10:27;-0.10;84.72
68648;SHT31;55632;51.962;16.116;2023-03-01T09:15:30;0.08;84.72
68648;SHT31;55632;51.962;16.116;2023-03-01T09:20:31;0.30;84.52
68648;SHT31;55632;51.962;16.116;2023-03-01T09:25:34;0.44;84.14
68648;SHT31;55632;51.962;16.116;2023-03-01T09:30:34;0.59;83.76
68648;SHT31;55632;51.962;16.116;2023-03-01T09:35:40;0.73;83.49
68648;SHT31;55632;51.962;16.116;2023-03-01T09:40:46;0.83;83.11
68648;SHT31;55632;51.962;16.116;2023-03-01T09:45:48;0.95;82.78
68648;SHT31;55632;51.962;16.116;2023-03-01T09:50:53;1.07;82.46
68648;SHT31;55632;51.962;16.116;2023-03-01T10:01:10;1.36;81.67
68648;SHT31;55632;51.962;16.116;2023-03-01T10:06:21;1.50;81.49
68648;SHT31;55632;51.962;16.116;2023-03-01T10:11:28;1.57;81.05
68648;SHT31;55632;51.962;16.116;2023-03-01T10:16:54;1.68;80.76
68648;SHT31;55632;51.962;16.116;2023-03-01T10:22:03;1.81;80.52
68648;SHT31;55632;51.962;16.116;2023-03-01T10:27:21;1.93;80.38
68648;SHT31;55632;51.962;16.116;2023-03-01T10:32:26;2.32;81.72
68648;SHT31;55632;51.962;16.116;2023-03-01T10:37:30;2.61;80.67
68648;SHT31;55632;51.962;16.116;2023-03-01T10:42:33;2.74;79.86
68648;SHT31;55632;51.962;16.116;2023-03-01T10:47:34;2.91;79.63
68648;SHT31;55632;51.962;16.116;2023-03-01T10:52:41;3.03;78.99
68648;SHT31;55632;51.962;16.116;2023-03-01T10:57:44;3.09;77.74
68648;SHT31;55632;51.962;16.116;2023-03-01T11:02:47;3.09;77.03
68648;SHT31;55632;51.962;16.116;2023-03-01T11:07:56;3.10;76.55
68648;SHT31;55632;51.962;16.116;2023-03-01T11:13:31;3.12;75.99
68648;SHT31;55632;51.962;16.116;2023-03-01T11:18:35;3.13;75.22
68648;SHT31;55632;51.962;16.116;2023-03-01T11:23:36;3.20;73.59
68648;SHT31;55632;51.962;16.116;2023-03-01T11:28:40;3.26;73.00
68648;SHT31;55632;51.962;16.116;2023-03-01T11:34:09;3.36;72.14
68648;SHT31;55632;51.962;16.116;2023-03-01T11:44:36;3.45;70.96
68648;SHT31;55632;51.962;16.116;2023-03-01T12:48:19;4.07;62.94
68648;SHT31;55632;51.962;16.116;2023-03-01T12:53:27;4.10;62.68
68648;SHT31;55632;51.962;16.116;2023-03-01T12:58:46;4.17;62.23
68648;SHT31;55632;51.962;16.116;2023-03-01T13:09:37;4.25;61.35
68648;SHT31;55632;51.962;16.116;2023-03-01T13:14:45;4.27;60.47
68648;SHT31;55632;51.962;16.116;2023-03-01T13:19:57;4.30;60.24
68648;SHT31;55632;51.962;16.116;2023-03-01T13:25:19;4.34;59.10
68648;SHT31;55632;51.962;16.116;2023-03-01T13:35:41;4.40;58.29
68648;SHT31;55632;51.962;16.116;2023-03-01T13:46:00;4.45;57.03
68648;SHT31;55632;51.962;16.116;2023-03-01T13:51:09;4.55;56.61
68648;SHT31;55632;51.962;16.116;2023-03-01T13:56:27;4.58;56.28
68648;SHT31;55632;51.962;16.116;2023-03-01T14:01:33;4.59;55.76
68648;SHT31;55632;51.962;16.116;2023-03-01T14:06:37;4.62;55.74
68648;SHT31;55632;51.962;16.116;2023-03-01T14:22:28;4.61;54.15
68648;SHT31;55632;51.962;16.116;2023-03-01T14:27:36;4.62;53.49
68648;SHT31;55632;51.962;16.116;2023-03-01T14:32:42;4.64;53.11
68648;SHT31;55632;51.962;16.116;2023-03-01T14:37:43;4.68;52.99
68648;SHT31;55632;51.962;16.116;2023-03-01T14:42:44;4.72;52.73
68648;SHT31;55632;51.962;16.116;2023-03-01T14:47:45;4.69;52.76
68648;SHT31;55632;51.962;16.116;2023-03-01T14:52:49;4.66;52.38
68648;SHT31;55632;51.962;16.116;2023-03-01T14:57:52;4.71;52.56
68648;SHT31;55632;51.962;16.116;2023-03-01T15:03:06;4.76;52.34
68648;SHT31;55632;51.962;16.116;2023-03-01T15:08:19;4.79;51.84
68648;SHT31;55632;51.962;16.116;2023-03-01T15:13:28;4.80;51.64
68648;SHT31;55632;51.962;16.116;2023-03-01T15:18:29;4.86;51.32
68648;SHT31;55632;51.962;16.116;2023-03-01T15:23:30;4.92;52.01
68648;SHT31;55632;51.962;16.116;2023-03-01T15:28:38;4.92;51.54
68648;SHT31;55632;51.962;16.116;2023-03-01T15:33:40;4.93;51.45
68648;SHT31;55632;51.962;16.116;2023-03-01T15:38:55;4.85;51.22
68648;SHT31;55632;51.962;16.116;2023-03-01T15:44:00;4.83;51.58
68648;SHT31;55632;51.962;16.116;2023-03-01T15:49:04;4.79;52.49
68648;SHT31;55632;51.962;16.116;2023-03-01T15:54:32;4.73;52.55
68648;SHT31;55632;51.962;16.116;2023-03-01T15:59:33;4.68;53.39
68648;SHT31;55632;51.962;16.116;2023-03-01T16:04:34;4.58;54.08
68648;SHT31;55632;51.962;16.116;2023-03-01T16:09:35;4.48;54.38
68648;SHT31;55632;51.962;16.116;2023-03-01T16:14:36;4.36;55.35
68648;SHT31;55632;51.962;16.116;2023-03-01T16:19:37;4.24;55.66
68648;SHT31;55632;51.962;16.116;2023-03-01T16:24:38;4.07;55.71
68648;SHT31;55632;51.962;16.116;2023-03-01T16:29:44;3.90;56.69
68648;SHT31;55632;51.962;16.116;2023-03-01T16:34:44;3.86;57.56
68648;SHT31;55632;51.962;16.116;2023-03-01T16:39:45;3.82;58.48
68648;SHT31;55632;51.962;16.116;2023-03-01T16:44:46;3.74;59.09
68648;SHT31;55632;51.962;16.116;2023-03-01T16:49:47;3.60;59.99
68648;SHT31;55632;51.962;16.116;2023-03-01T16:54:48;3.38;60.55
68648;SHT31;55632;51.962;16.116;2023-03-01T16:59:51;3.16;61.75
68648;SHT31;55632;51.962;16.116;2023-03-01T17:04:55;2.91;61.32
68648;SHT31;55632;51.962;16.116;2023-03-01T17:09:56;2.62;61.61
68648;SHT31;55632;51.962;16.116;2023-03-01T17:14:56;2.43;62.52
68648;SHT31;55632;51.962;16.116;2023-03-01T17:19:57;2.33;63.16
68648;SHT31;55632;51.962;16.116;2023-03-01T17:24:58;2.22;63.96
68648;SHT31;55632;51.962;16.116;2023-03-01T17:29:59;2.12;64.61
68648;SHT31;55632;51.962;16.116;2023-03-01T17:35:00;1.99;65.25
68648;SHT31;55632;51.962;16.116;2023-03-01T17:40:01;1.82;64.84
68648;SHT31;55632;51.962;16.116;2023-03-01T17:45:02;1.68;65.12
68648;SHT31;55632;51.962;16.116;2023-03-01T17:50:03;1.53;65.29
68648;SHT31;55632;51.962;16.116;2023-03-01T17:55:06;1.39;65.37
68648;SHT31;55632;51.962;16.116;2023-03-01T18:00:14;1.25;65.60
68648;SHT31;55632;51.962;16.116;2023-03-01T18:05:15;1.14;65.70
68648;SHT31;55632;51.962;16.116;2023-03-01T18:10:17;0.99;65.96
68648;SHT31;55632;51.962;16.116;2023-03-01T18:15:18;0.94;66.21
68648;SHT31;55632;51.962;16.116;2023-03-01T18:20:19;0.84;66.42
68648;SHT31;55632;51.962;16.116;2023-03-01T18:25:20;0.74;66.72
68648;SHT31;55632;51.962;16.116;2023-03-01T18:30:21;0.69;67.00
68648;SHT31;55632;51.962;16.116;2023-03-01T18:35:22;0.57;67.47
68648;SHT31;55632;51.962;16.116;2023-03-01T18:40:23;0.48;67.81
68648;SHT31;55632;51.962;16.116;2023-03-01T18:45:25;0.38;68.09
68648;SHT31;55632;51.962;16.116;2023-03-01T18:50:25;0.26;68.23
68648;SHT31;55632;51.962;16.116;2023-03-01T18:55:26;0.10;68.52
68648;SHT31;55632;51.962;16.116;2023-03-01T19:00:28;-0.02;68.62
68648;SHT31;55632;51.962;16.116;2023-03-01T19:05:29;-0.09;68.91
68648;SHT31;55632;51.962;16.116;2023-03-01T19:10:33;-0.11;69.10
68648;SHT31;55632;51.962;16.116;2023-03-01T19:15:34;-0.14;69.30
68648;SHT31;55632;51.962;16.116;2023-03-01T19:20:41;-0.20;69.65
68648;SHT31;55632;51.962;16.116;2023-03-01T19:25:42;-0.28;69.85
68648;SHT31;55632;51.962;16.116;2023-03-01T19:30:43;-0.35;69.97
68648;SHT31;55632;51.962;16.116;2023-03-01T19:35:44;-0.37;70.22
68648;SHT31;55632;51.962;16.116;2023-03-01T19:40:45;-0.42;70.50
68648;SHT31;55632;51.962;16.116;2023-03-01T19:45:55;-0.50;70.74
68648;SHT31;55632;51.962;16.116;2023-03-01T19:50:58;-0.54;70.86
68648;SHT31;55632;51.962;16.116;2023-03-01T19:56:02;-0.61;71.04
68648;SHT31;55632;51.962;16.116;2023-03-01T20:01:15;-0.62;71.20
68648;SHT31;55632;51.962;16.116;2023-03-01T20:06:20;-0.70;71.41
68648;SHT31;55632;51.962;16.116;2023-03-01T20:11:24;-0.73;71.63
68648;SHT31;55632;51.962;16.116;2023-03-01T20:16:25;-0.79;72.03
68648;SHT31;55632;51.962;16.116;2023-03-01T20:21:28;-0.85;72.38
68648;SHT31;55632;51.962;16.116;2023-03-01T20:26:32;-0.87;72.65
68648;SHT31;55632;51.962;16.116;2023-03-01T20:31:36;-0.89;72.84
68648;SHT31;55632;51.962;16.116;2023-03-01T20:36:39;-0.92;73.04
68648;SHT31;55632;51.962;16.116;2023-03-01T20:41:41;-1.00;73.24
68648;SHT31;55632;51.962;16.116;2023-03-01T20:46:42;-1.08;73.34
68648;SHT31;55632;51.962;16.116;2023-03-01T20:51:42;-1.15;73.66
68648;SHT31;55632;51.962;16.116;2023-03-01T20:56:44;-1.17;73.82
68648;SHT31;55632;51.962;16.116;2023-03-01T21:01:49;-1.20;73.87
68648;SHT31;55632;51.962;16.116;2023-03-01T21:06:56;-1.22;74.04
68648;SHT31;55632;51.962;16.116;2023-03-01T21:11:58;-1.28;74.23
68648;SHT31;55632;51.962;16.116;2023-03-01T21:16:58;-1.31;74.39
68648;SHT31;55632;51.962;16.116;2023-03-01T21:21:59;-1.37;74.52
68648;SHT31;55632;51.962;16.116;2023-03-01T21:27:00;-1.41;74.69
68648;SHT31;55632;51.962;16.116;2023-03-01T21:32:07;-1.44;74.81
68648;SHT31;55632;51.962;16.116;2023-03-01T21:37:08;-1.51;75.00
68648;SHT31;55632;51.962;16.116;2023-03-01T21:42:10;-1.51;75.16
68648;SHT31;55632;51.962;16.116;2023-03-01T21:47:13;-1.58;75.31
68648;SHT31;55632;51.962;16.116;2023-03-01T21:52:15;-1.59;75.44
68648;SHT31;55632;51.962;16.116;2023-03-01T21:57:16;-1.62;75.61
68648;SHT31;55632;51.962;16.116;2023-03-01T22:02:20;-1.66;75.71
68648;SHT31;55632;51.962;16.116;2023-03-01T22:07:21;-1.74;75.78
68648;SHT31;55632;51.962;16.116;2023-03-01T22:12:23;-1.79;75.81
68648;SHT31;55632;51.962;16.116;2023-03-01T22:17:23;-1.89;75.92
68648;SHT31;55632;51.962;16.116;2023-03-01T22:22:25;-1.93;76.13
68648;SHT31;55632;51.962;16.116;2023-03-01T22:27:25;-2.01;76.35
68648;SHT31;55632;51.962;16.116;2023-03-01T22:32:26;-2.02;76.49
68648;SHT31;55632;51.962;16.116;2023-03-01T22:37:27;-2.07;76.67
68648;SHT31;55632;51.962;16.116;2023-03-01T22:42:28;-2.10;76.69
68648;SHT31;55632;51.962;16.116;2023-03-01T22:47:28;-2.12;76.76
68648;SHT31;55632;51.962;16.116;2023-03-01T22:52:29;-2.17;76.78
68648;SHT31;55632;51.962;16.116;2023-03-01T22:57:30;-2.22;76.93
68648;SHT31;55632;51.962;16.116;2023-03-01T23:02:31;-2.28;77.16
68648;SHT31;55632;51.962;16.116;2023-03-01T23:07:35;-2.29;77.25
68648;SHT31;55632;51.962;16.116;2023-03-01T23:12:37;-2.34;77.29
68648;SHT31;55632;51.962;16.116;2023-03-01T23:17:38;-2.39;77.38
68648;SHT31;55632;51.962;16.116;2023-03-01T23:22:39;-2.45;77.51
68648;SHT31;55632;51.962;16.116;2023-03-01T23:27:40;-2.48;77.74
68648;SHT31;55632;51.962;16.116;2023-03-01T23:32:41;-2.52;77.92
68648;SHT31;55632;51.962;16.116;2023-03-01T23:37:42;-2.54;78.07
68648;SHT31;55632;51.962;16.116;2023-03-01T23:42:45;-2.56;78.20
68648;SHT31;55632;51.962;16.116;2023-03-01T23:47:46;-2.56;78.33
68648;SHT31;55632;51.962;16.116;2023-03-01T23:52:47;-2.56;78.41
68648;SHT31;55632;51.962;16.116;2023-03-01T23:57:50;-2.57;78.48
